sensor_id;sensor_type;location;lat;lon;timestamp;P1;durP1;ratioP1;P2;durP2;ratioP2
9248;SDS011;4660;41.768;26.198;2023-02-15T00:01:51;34.77;;;19.03;;
9248;SDS011;4660;41.768;26.198;2023-02-15T00:04:18;26.40;;;17.33;;
9248;SDS011;4660;41.768;26.198;2023-02-15T00:06:45;26.60;;;18.33;;
9248;SDS011;4660;41.768;26.198;2023-02-15T00:09:11;28.97;;;17.63;;
9248;SDS011;4660;41.768;26.198;2023-02-15T00:11:37;26.00;;;16.33;;
9248;SDS011;4660;41.768;26.198;2023-02-15T00:14:19;32.73;;;19.70;;
9248;SDS011;4660;41.768;26.198;2023-02-15T00:16:47;31.90;;;20.40;;
9248;SDS011;4660;41.768;26.198;2023-02-15T00:19:15;33.37;;;21.37;;
9248;SDS011;4660;41.768;26.198;2023-02-15T00:21:42;27.57;;;19.00;;
9248;SDS011;4660;41.768;26.198;2023-02-15T00:24:09;27.93;;;19.77;;
9248;SDS011;4660;41.768;26.198;2023-02-15T00:26:37;31.90;;;20.50;;
9248;SDS011;4660;41.768;26.198;2023-02-15T00:29:03;42.53;;;24.50;;
9248;SDS011;4660;41.768;26.198;2023-02-15T00:31:29;38.13;;;21.37;;
9248;SDS011;4660;41.768;26.198;2023-02-15T00:34:04;35.50;;;21.87;;
9248;SDS011;4660;41.768;26.198;2023-02-15T00:36:35;32.37;;;21.07;;
9248;SDS011;4660;41.768;26.198;2023-02-15T00:39:01;34.60;;;21.60;;
9248;SDS011;4660;41.768;26.198;2023-02-15T00:41:27;32.40;;;20.17;;
9248;SDS011;4660;41.768;26.198;2023-02-15T00:43:52;31.93;;;20.80;;
9248;SDS011;4660;41.768;26.198;2023-02-15T00:46:18;29.93;;;18.90;;
9248;SDS011;4660;41.768;26.198;2023-02-15T00:48:43;33.07;;;18.47;;
9248;SDS011;4660;41.768;26.198;2023-02-15T00:51:09;39.67;;;20.63;;
9248;SDS011;4660;41.768;26.198;2023-02-15T00:53:34;33.07;;;20.13;;
9248;SDS011;4660;41.768;26.198;2023-02-15T00:56:00;30.47;;;19.93;;
9248;SDS011;4660;41.768;26.198;2023-02-15T00:58:25;35.03;;;21.70;;
9248;SDS011;4660;41.768;26.198;2023-02-15T01:00:51;36.77;;;19.57;;
9248;SDS011;4660;41.768;26.198;2023-02-15T01:03:17;32.67;;;20.47;;
9248;SDS011;4660;41.768;26.198;2023-02-15T01:05:44;35.40;;;22.30;;
9248;SDS011;4660;41.768;26.198;2023-02-15T01:08:12;38.10;;;23.90;;
9248;SDS011;4660;41.768;26.198;2023-02-15T01:10:37;34.80;;;17.93;;
9248;SDS011;4660;41.768;26.198;2023-02-15T01:13:03;33.17;;;22.07;;
9248;SDS011;4660;41.768;26.198;2023-02-15T01:15:29;32.07;;;18.97;;
9248;SDS011;4660;41.768;26.198;2023-02-15T01:17:54;32.30;;;21.10;;
9248;SDS011;4660;41.768;26.198;2023-02-15T01:20:21;30.83;;;19.57;;
9248;SDS011;4660;41.768;26.198;2023-02-15T01:22:52;37.03;;;22.47;;
9248;SDS011;4660;41.768;26.198;2023-02-15T01:25:19;35.03;;;21.57;;
9248;SDS011;4660;41.768;26.198;2023-02-15T01:27:47;31.83;;;21.67;;
9248;SDS011;4660;41.768;26.198;2023-02-15T01:30:13;30.60;;;18.77;;
9248;SDS011;4660;41.768;26.198;2023-02-15T01:32:39;33.60;;;20.37;;
9248;SDS011;4660;41.768;26.198;2023-02-15T01:35:06;36.47;;;19.50;;
9248;SDS011;4660;41.768;26.198;2023-02-15T01:37:32;32.57;;;20.13;;
9248;SDS011;4660;41.768;26.198;2023-02-15T01:39:59;28.87;;;20.10;;
9248;SDS011;4660;41.768;26.198;2023-02-15T01:42:25;34.47;;;20.17;;
9248;SDS011;4660;41.768;26.198;2023-02-15T01:44:54;29.23;;;18.03;;
9248;SDS011;4660;41.768;26.198;2023-02-15T01:47:33;29.07;;;18.80;;
9248;SDS011;4660;41.768;26.198;2023-02-15T01:50:09;28.60;;;19.00;;
9248;SDS011;4660;41.768;26.198;2023-02-15T01:52:39;26.20;;;17.13;;
9248;SDS011;4660;41.768;26.198;2023-02-15T01:55:08;31.57;;;18.10;;
9248;SDS011;4660;41.768;26.198;2023-02-15T01:57:34;28.30;;;18.33;;
9248;SDS011;4660;41.768;26.198;2023-02-15T02:00:00;30.37;;;18.63;;
9248;SDS011;4660;41.768;26.198;2023-02-15T02:02:29;31.77;;;18.00;;
9248;SDS011;4660;41.768;26.198;2023-02-15T02:04:59;28.23;;;18.77;;
9248;SDS011;4660;41.768;26.198;2023-02-15T02:07:31;36.03;;;20.60;;
9248;SDS011;4660;41.768;26.198;2023-02-15T02:10:00;30.67;;;18.67;;
9248;SDS011;4660;41.768;26.198;2023-02-15T02:12:27;28.43;;;19.47;;
9248;SDS011;4660;41.768;26.198;2023-02-15T02:14:52;31.50;;;20.37;;
9248;SDS011;4660;41.768;26.198;2023-02-15T02:34:15;29.03;;;19.70;;
9248;SDS011;4660;41.768;26.198;2023-02-15T02:36:59;29.73;;;20.97;;
9248;SDS011;4660;41.768;26.198;2023-02-15T02:39:39;34.30;;;20.00;;
9248;SDS011;4660;41.768;26.198;2023-02-15T02:45:13;32.60;;;21.03;;
9248;SDS011;4660;41.768;26.198;2023-02-15T02:50:39;29.43;;;20.47;;
9248;SDS011;4660;41.768;26.198;2023-02-15T02:53:05;30.03;;;18.93;;
9248;SDS011;4660;41.768;26.198;2023-02-15T02:55:32;41.83;;;24.30;;
9248;SDS011;4660;41.768;26.198;2023-02-15T02:58:11;28.60;;;19.17;;
9248;SDS011;4660;41.768;26.198;2023-02-15T03:00:40;32.33;;;19.57;;
9248;SDS011;4660;41.768;26.198;2023-02-15T03:06:00;27.73;;;18.57;;
9248;SDS011;4660;41.768;26.198;2023-02-15T03:08:42;32.07;;;19.77;;
9248;SDS011;4660;41.768;26.198;2023-02-15T03:11:10;30.07;;;20.97;;
9248;SDS011;4660;41.768;26.198;2023-02-15T03:13:37;30.50;;;19.73;;
9248;SDS011;4660;41.768;26.198;2023-02-15T03:16:02;29.23;;;20.20;;
9248;SDS011;4660;41.768;26.198;2023-02-15T03:18:53;32.70;;;19.77;;
9248;SDS011;4660;41.768;26.198;2023-02-15T03:21:31;30.83;;;21.33;;
9248;SDS011;4660;41.768;26.198;2023-02-15T03:23:59;33.70;;;20.80;;
9248;SDS011;4660;41.768;26.198;2023-02-15T03:26:34;32.70;;;20.47;;
9248;SDS011;4660;41.768;26.198;2023-02-15T03:29:03;29.77;;;20.10;;
9248;SDS011;4660;41.768;26.198;2023-02-15T03:31:33;52.23;;;30.30;;
9248;SDS011;4660;41.768;26.198;2023-02-15T03:34:06;32.33;;;21.23;;
9248;SDS011;4660;41.768;26.198;2023-02-15T03:36:46;33.97;;;20.77;;
9248;SDS011;4660;41.768;26.198;2023-02-15T03:42:17;33.93;;;20.20;;
9248;SDS011;4660;41.768;26.198;2023-02-15T03:44:58;33.63;;;20.00;;
9248;SDS011;4660;41.768;26.198;2023-02-15T03:47:41;30.43;;;19.80;;
9248;SDS011;4660;41.768;26.198;2023-02-15T03:52:57;64.67;;;32.43;;
9248;SDS011;4660;41.768;26.198;2023-02-15T03:55:25;32.07;;;21.53;;
9248;SDS011;4660;41.768;26.198;2023-02-15T03:57:51;36.80;;;21.53;;
9248;SDS011;4660;41.768;26.198;2023-02-15T04:00:37;28.90;;;20.27;;
9248;SDS011;4660;41.768;26.198;2023-02-15T04:03:28;37.93;;;21.73;;
9248;SDS011;4660;41.768;26.198;2023-02-15T04:05:56;34.67;;;20.20;;
9248;SDS011;4660;41.768;26.198;2023-02-15T04:08:22;35.20;;;20.90;;
9248;SDS011;4660;41.768;26.198;2023-02-15T04:11:07;33.67;;;21.17;;
9248;SDS011;4660;41.768;26.198;2023-02-15T04:13:33;33.90;;;20.93;;
9248;SDS011;4660;41.768;26.198;2023-02-15T04:15:59;31.77;;;20.90;;
9248;SDS011;4660;41.768;26.198;2023-02-15T04:18:31;34.50;;;19.57;;
9248;SDS011;4660;41.768;26.198;2023-02-15T04:21:20;29.50;;;20.33;;
9248;SDS011;4660;41.768;26.198;2023-02-15T04:24:06;27.60;;;18.63;;
9248;SDS011;4660;41.768;26.198;2023-02-15T04:26:51;32.10;;;19.27;;
9248;SDS011;4660;41.768;26.198;2023-02-15T04:29:18;36.00;;;21.63;;
9248;SDS011;4660;41.768;26.198;2023-02-15T04:31:47;35.20;;;22.20;;
9248;SDS011;4660;41.768;26.198;2023-02-15T04:34:13;35.27;;;20.93;;
9248;SDS011;4660;41.768;26.198;2023-02-15T04:36:39;35.03;;;20.50;;
9248;SDS011;4660;41.768;26.198;2023-02-15T04:39:06;28.67;;;20.10;;
9248;SDS011;4660;41.768;26.198;2023-02-15T04:41:32;33.43;;;20.10;;
9248;SDS011;4660;41.768;26.198;2023-02-15T04:43:58;32.43;;;21.07;;
9248;SDS011;4660;41.768;26.198;2023-02-15T04:46:25;34.73;;;19.83;;
9248;SDS011;4660;41.768;26.198;2023-02-15T04:48:52;40.10;;;22.87;;
9248;SDS011;4660;41.768;26.198;2023-02-15T04:51:17;30.87;;;20.67;;
9248;SDS011;4660;41.768;26.198;2023-02-15T04:53:43;30.20;;;18.87;;
9248;SDS011;4660;41.768;26.198;2023-02-15T04:56:08;30.07;;;20.40;;
9248;SDS011;4660;41.768;26.198;2023-02-15T04:58:34;32.00;;;20.13;;
9248;SDS011;4660;41.768;26.198;2023-02-15T05:01:00;30.90;;;19.97;;
9248;SDS011;4660;41.768;26.198;2023-02-15T05:03:26;34.47;;;21.10;;
9248;SDS011;4660;41.768;26.198;2023-02-15T05:05:52;33.37;;;22.37;;
9248;SDS011;4660;41.768;26.198;2023-02-15T05:08:17;39.27;;;22.60;;
9248;SDS011;4660;41.768;26.198;2023-02-15T05:10:43;32.37;;;21.03;;
9248;SDS011;4660;41.768;26.198;2023-02-15T05:13:09;33.13;;;20.77;;
9248;SDS011;4660;41.768;26.198;2023-02-15T05:15:34;30.93;;;20.37;;
9248;SDS011;4660;41.768;26.198;2023-02-15T05:18:00;37.30;;;22.37;;
9248;SDS011;4660;41.768;26.198;2023-02-15T05:20:26;34.83;;;20.90;;
9248;SDS011;4660;41.768;26.198;2023-02-15T05:22:55;31.47;;;20.63;;
9248;SDS011;4660;41.768;26.198;2023-02-15T05:25:20;31.17;;;19.33;;
9248;SDS011;4660;41.768;26.198;2023-02-15T05:28:04;27.70;;;18.80;;
9248;SDS011;4660;41.768;26.198;2023-02-15T05:30:48;30.87;;;20.80;;
9248;SDS011;4660;41.768;26.198;2023-02-15T05:33:34;30.30;;;20.43;;
9248;SDS011;4660;41.768;26.198;2023-02-15T05:36:01;30.10;;;20.20;;
9248;SDS011;4660;41.768;26.198;2023-02-15T05:38:27;33.40;;;20.50;;
9248;SDS011;4660;41.768;26.198;2023-02-15T05:40:53;40.43;;;23.73;;
9248;SDS011;4660;41.768;26.198;2023-02-15T05:43:19;34.07;;;21.40;;
9248;SDS011;4660;41.768;26.198;2023-02-15T05:45:49;35.43;;;21.57;;
9248;SDS011;4660;41.768;26.198;2023-02-15T05:48:16;39.10;;;23.87;;
9248;SDS011;4660;41.768;26.198;2023-02-15T05:50:43;35.33;;;23.17;;
9248;SDS011;4660;41.768;26.198;2023-02-15T05:53:09;35.27;;;21.53;;
9248;SDS011;4660;41.768;26.198;2023-02-15T05:55:36;34.47;;;21.07;;
9248;SDS011;4660;41.768;26.198;2023-02-15T05:58:06;32.67;;;20.77;;
9248;SDS011;4660;41.768;26.198;2023-02-15T06:00:33;33.00;;;18.80;;
9248;SDS011;4660;41.768;26.198;2023-02-15T06:02:59;30.63;;;19.43;;
9248;SDS011;4660;41.768;26.198;2023-02-15T06:05:25;33.27;;;21.17;;
9248;SDS011;4660;41.768;26.198;2023-02-15T06:07:50;31.33;;;20.70;;
9248;SDS011;4660;41.768;26.198;2023-02-15T06:10:16;31.50;;;21.97;;
9248;SDS011;4660;41.768;26.198;2023-02-15T06:12:43;31.53;;;19.90;;
9248;SDS011;4660;41.768;26.198;2023-02-15T06:15:09;30.20;;;19.80;;
9248;SDS011;4660;41.768;26.198;2023-02-15T06:17:34;31.63;;;20.90;;
9248;SDS011;4660;41.768;26.198;2023-02-15T06:20:00;30.27;;;18.73;;
9248;SDS011;4660;41.768;26.198;2023-02-15T06:22:26;28.43;;;17.63;;
9248;SDS011;4660;41.768;26.198;2023-02-15T06:24:52;28.93;;;18.73;;
9248;SDS011;4660;41.768;26.198;2023-02-15T06:27:17;27.93;;;16.80;;
9248;SDS011;4660;41.768;26.198;2023-02-15T06:29:43;30.50;;;19.80;;
9248;SDS011;4660;41.768;26.198;2023-02-15T06:32:08;27.90;;;18.53;;
9248;SDS011;4660;41.768;26.198;2023-02-15T06:34:34;33.67;;;19.70;;
9248;SDS011;4660;41.768;26.198;2023-02-15T06:36:59;28.07;;;17.83;;
9248;SDS011;4660;41.768;26.198;2023-02-15T06:39:26;29.73;;;18.53;;
9248;SDS011;4660;41.768;26.198;2023-02-15T06:41:51;30.57;;;19.37;;
9248;SDS011;4660;41.768;26.198;2023-02-15T06:44:17;26.77;;;19.03;;
9248;SDS011;4660;41.768;26.198;2023-02-15T06:46:43;29.57;;;19.03;;
9248;SDS011;4660;41.768;26.198;2023-02-15T06:49:08;28.80;;;19.80;;
9248;SDS011;4660;41.768;26.198;2023-02-15T06:51:34;27.37;;;18.80;;
9248;SDS011;4660;41.768;26.198;2023-02-15T06:53:59;33.03;;;18.07;;
9248;SDS011;4660;41.768;26.198;2023-02-15T06:56:25;30.33;;;19.73;;
9248;SDS011;4660;41.768;26.198;2023-02-15T06:58:51;31.50;;;20.07;;
9248;SDS011;4660;41.768;26.198;2023-02-15T07:01:18;28.20;;;19.27;;
9248;SDS011;4660;41.768;26.198;2023-02-15T07:03:43;25.57;;;16.97;;
9248;SDS011;4660;41.768;26.198;2023-02-15T07:06:09;28.50;;;18.57;;
9248;SDS011;4660;41.768;26.198;2023-02-15T07:08:36;27.20;;;17.30;;
9248;SDS011;4660;41.768;26.198;2023-02-15T07:11:03;23.53;;;15.37;;
9248;SDS011;4660;41.768;26.198;2023-02-15T07:13:48;27.80;;;19.30;;
9248;SDS011;4660;41.768;26.198;2023-02-15T07:16:14;38.00;;;22.83;;
9248;SDS011;4660;41.768;26.198;2023-02-15T07:18:41;30.00;;;19.07;;
9248;SDS011;4660;41.768;26.198;2023-02-15T07:21:13;30.90;;;21.97;;
9248;SDS011;4660;41.768;26.198;2023-02-15T07:23:39;26.47;;;19.03;;
9248;SDS011;4660;41.768;26.198;2023-02-15T07:26:05;31.77;;;20.47;;
9248;SDS011;4660;41.768;26.198;2023-02-15T07:28:32;31.07;;;20.07;;
9248;SDS011;4660;41.768;26.198;2023-02-15T07:31:00;30.43;;;20.00;;
9248;SDS011;4660;41.768;26.198;2023-02-15T07:33:27;30.07;;;20.00;;
9248;SDS011;4660;41.768;26.198;2023-02-15T07:35:54;29.47;;;19.30;;
9248;SDS011;4660;41.768;26.198;2023-02-15T07:38:26;28.87;;;19.73;;
9248;SDS011;4660;41.768;26.198;2023-02-15T07:40:58;29.93;;;19.13;;
9248;SDS011;4660;41.768;26.198;2023-02-15T07:43:24;30.40;;;19.53;;
9248;SDS011;4660;41.768;26.198;2023-02-15T07:45:50;29.90;;;18.63;;
9248;SDS011;4660;41.768;26.198;2023-02-15T07:48:16;27.60;;;19.63;;
9248;SDS011;4660;41.768;26.198;2023-02-15T07:50:41;29.60;;;19.37;;
9248;SDS011;4660;41.768;26.198;2023-02-15T07:53:09;22.27;;;14.53;;
9248;SDS011;4660;41.768;26.198;2023-02-15T07:55:37;29.13;;;18.20;;
9248;SDS011;4660;41.768;26.198;2023-02-15T07:58:03;24.40;;;18.63;;
9248;SDS011;4660;41.768;26.198;2023-02-15T08:00:28;28.50;;;19.00;;
9248;SDS011;4660;41.768;26.198;2023-02-15T08:03:18;28.83;;;19.13;;
9248;SDS011;4660;41.768;26.198;2023-02-15T08:05:44;23.50;;;15.23;;
9248;SDS011;4660;41.768;26.198;2023-02-15T08:08:10;25.47;;;18.63;;
9248;SDS011;4660;41.768;26.198;2023-02-15T08:11:02;28.77;;;18.40;;
9248;SDS011;4660;41.768;26.198;2023-02-15T08:13:54;24.93;;;17.17;;
9248;SDS011;4660;41.768;26.198;2023-02-15T08:19:05;26.07;;;17.13;;
9248;SDS011;4660;41.768;26.198;2023-02-15T08:21:31;28.57;;;17.30;;
9248;SDS011;4660;41.768;26.198;2023-02-15T08:23:58;45.63;;;31.27;;
9248;SDS011;4660;41.768;26.198;2023-02-15T08:26:24;26.17;;;16.63;;
9248;SDS011;4660;41.768;26.198;2023-02-15T08:28:50;25.50;;;17.17;;
9248;SDS011;4660;41.768;26.198;2023-02-15T08:31:17;23.43;;;17.00;;
9248;SDS011;4660;41.768;26.198;2023-02-15T08:33:47;24.43;;;16.03;;
9248;SDS011;4660;41.768;26.198;2023-02-15T08:36:16;28.37;;;16.53;;
9248;SDS011;4660;41.768;26.198;2023-02-15T08:38:44;23.50;;;15.90;;
9248;SDS011;4660;41.768;26.198;2023-02-15T08:43:41;24.40;;;16.80;;
9248;SDS011;4660;41.768;26.198;2023-02-15T08:46:07;26.10;;;16.20;;
9248;SDS011;4660;41.768;26.198;2023-02-15T08:48:36;23.30;;;17.33;;
9248;SDS011;4660;41.768;26.198;2023-02-15T08:51:04;25.93;;;16.70;;
9248;SDS011;4660;41.768;26.198;2023-02-15T08:53:41;28.67;;;17.90;;
9248;SDS011;4660;41.768;26.198;2023-02-15T08:56:10;21.13;;;16.03;;
9248;SDS011;4660;41.768;26.198;2023-02-15T08:58:36;22.23;;;15.70;;
9248;SDS011;4660;41.768;26.198;2023-02-15T09:01:15;21.40;;;14.07;;
9248;SDS011;4660;41.768;26.198;2023-02-15T09:03:58;22.60;;;14.70;;
9248;SDS011;4660;41.768;26.198;2023-02-15T09:06:26;20.00;;;14.67;;
9248;SDS011;4660;41.768;26.198;2023-02-15T09:08:53;29.37;;;17.67;;
9248;SDS011;4660;41.768;26.198;2023-02-15T09:11:26;27.43;;;17.17;;
9248;SDS011;4660;41.768;26.198;2023-02-15T09:13:54;22.67;;;15.53;;
9248;SDS011;4660;41.768;26.198;2023-02-15T09:16:28;23.03;;;15.77;;
9248;SDS011;4660;41.768;26.198;2023-02-15T09:18:55;29.60;;;19.00;;
9248;SDS011;4660;41.768;26.198;2023-02-15T09:21:26;49.50;;;30.53;;
9248;SDS011;4660;41.768;26.198;2023-02-15T09:23:56;28.60;;;17.47;;
9248;SDS011;4660;41.768;26.198;2023-02-15T09:26:24;24.47;;;15.83;;
9248;SDS011;4660;41.768;26.198;2023-02-15T09:28:52;23.33;;;15.40;;
9248;SDS011;4660;41.768;26.198;2023-02-15T09:31:21;25.73;;;15.37;;
9248;SDS011;4660;41.768;26.198;2023-02-15T09:33:49;20.50;;;14.03;;
9248;SDS011;4660;41.768;26.198;2023-02-15T09:36:31;22.63;;;16.17;;
9248;SDS011;4660;41.768;26.198;2023-02-15T09:50:01;20.07;;;12.60;;
9248;SDS011;4660;41.768;26.198;2023-02-15T09:52:51;19.23;;;12.73;;
9248;SDS011;4660;41.768;26.198;2023-02-15T10:01:25;15.70;;;11.20;;
9248;SDS011;4660;41.768;26.198;2023-02-15T10:10:06;15.00;;;10.27;;
9248;SDS011;4660;41.768;26.198;2023-02-15T10:18:03;15.07;;;10.93;;
9248;SDS011;4660;41.768;26.198;2023-02-15T10:23:26;21.53;;;14.00;;
9248;SDS011;4660;41.768;26.198;2023-02-15T10:25:57;21.90;;;14.03;;
9248;SDS011;4660;41.768;26.198;2023-02-15T10:31:27;17.00;;;10.77;;
9248;SDS011;4660;41.768;26.198;2023-02-15T10:50:51;16.53;;;10.53;;
9248;SDS011;4660;41.768;26.198;2023-02-15T10:56:07;16.20;;;10.80;;
9248;SDS011;4660;41.768;26.198;2023-02-15T11:01:20;19.33;;;13.43;;
9248;SDS011;4660;41.768;26.198;2023-02-15T11:06:48;11.53;;;9.53;;
9248;SDS011;4660;41.768;26.198;2023-02-15T11:09:18;14.80;;;9.30;;
9248;SDS011;4660;41.768;26.198;2023-02-15T11:11:53;15.70;;;10.30;;
9248;SDS011;4660;41.768;26.198;2023-02-15T11:14:31;13.80;;;9.57;;
9248;SDS011;4660;41.768;26.198;2023-02-15T11:17:08;29.37;;;18.43;;
9248;SDS011;4660;41.768;26.198;2023-02-15T11:19:38;17.97;;;11.47;;
9248;SDS011;4660;41.768;26.198;2023-02-15T11:22:13;19.57;;;12.70;;
9248;SDS011;4660;41.768;26.198;2023-02-15T11:24:41;16.53;;;11.53;;
9248;SDS011;4660;41.768;26.198;2023-02-15T11:29:55;15.07;;;10.53;;
9248;SDS011;4660;41.768;26.198;2023-02-15T11:34:53;11.90;;;9.13;;
9248;SDS011;4660;41.768;26.198;2023-02-15T11:37:24;13.47;;;9.47;;
9248;SDS011;4660;41.768;26.198;2023-02-15T11:39:56;14.30;;;9.70;;
9248;SDS011;4660;41.768;26.198;2023-02-15T11:42:23;14.53;;;10.30;;
9248;SDS011;4660;41.768;26.198;2023-02-15T11:47:19;14.40;;;10.40;;
9248;SDS011;4660;41.768;26.198;2023-02-15T11:49:45;14.03;;;10.03;;
9248;SDS011;4660;41.768;26.198;2023-02-15T11:52:15;13.83;;;10.57;;
9248;SDS011;4660;41.768;26.198;2023-02-15T11:54:47;13.93;;;9.40;;
9248;SDS011;4660;41.768;26.198;2023-02-15T12:00:16;16.60;;;11.60;;
9248;SDS011;4660;41.768;26.198;2023-02-15T12:02:46;15.70;;;11.03;;
9248;SDS011;4660;41.768;26.198;2023-02-15T12:05:16;23.47;;;14.13;;
9248;SDS011;4660;41.768;26.198;2023-02-15T12:07:46;20.10;;;12.03;;
9248;SDS011;4660;41.768;26.198;2023-02-15T12:12:42;9.43;;;7.43;;
9248;SDS011;4660;41.768;26.198;2023-02-15T12:15:13;11.00;;;7.90;;
9248;SDS011;4660;41.768;26.198;2023-02-15T12:20:25;29.47;;;15.87;;
9248;SDS011;4660;41.768;26.198;2023-02-15T12:25:54;9.87;;;7.70;;
9248;SDS011;4660;41.768;26.198;2023-02-15T12:28:38;9.47;;;7.87;;
9248;SDS011;4660;41.768;26.198;2023-02-15T12:31:09;10.53;;;7.60;;
9248;SDS011;4660;41.768;26.198;2023-02-15T12:33:46;10.07;;;7.30;;
9248;SDS011;4660;41.768;26.198;2023-02-15T12:36:12;11.80;;;8.20;;
9248;SDS011;4660;41.768;26.198;2023-02-15T12:38:43;10.27;;;7.67;;
9248;SDS011;4660;41.768;26.198;2023-02-15T12:41:31;11.23;;;7.80;;
9248;SDS011;4660;41.768;26.198;2023-02-15T12:44:09;10.67;;;7.10;;
9248;SDS011;4660;41.768;26.198;2023-02-15T12:49:32;12.40;;;7.30;;
9248;SDS011;4660;41.768;26.198;2023-02-15T12:51:59;9.50;;;6.90;;
9248;SDS011;4660;41.768;26.198;2023-02-15T12:54:49;9.63;;;7.33;;
9248;SDS011;4660;41.768;26.198;2023-02-15T12:57:32;9.27;;;7.03;;
9248;SDS011;4660;41.768;26.198;2023-02-15T13:00:06;9.80;;;7.43;;
9248;SDS011;4660;41.768;26.198;2023-02-15T13:02:52;11.40;;;6.23;;
9248;SDS011;4660;41.768;26.198;2023-02-15T13:05:39;11.07;;;8.07;;
9248;SDS011;4660;41.768;26.198;2023-02-15T13:08:12;10.33;;;7.00;;
9248;SDS011;4660;41.768;26.198;2023-02-15T13:13:33;11.17;;;8.37;;
9248;SDS011;4660;41.768;26.198;2023-02-15T13:16:35;12.83;;;8.97;;
9248;SDS011;4660;41.768;26.198;2023-02-15T13:19:04;11.40;;;8.70;;
9248;SDS011;4660;41.768;26.198;2023-02-15T13:21:51;14.03;;;9.57;;
9248;SDS011;4660;41.768;26.198;2023-02-15T13:24:23;12.50;;;8.80;;
9248;SDS011;4660;41.768;26.198;2023-02-15T13:26:54;11.63;;;8.60;;
9248;SDS011;4660;41.768;26.198;2023-02-15T13:29:24;12.97;;;9.37;;
9248;SDS011;4660;41.768;26.198;2023-02-15T13:31:55;17.37;;;9.67;;
9248;SDS011;4660;41.768;26.198;2023-02-15T13:34:25;14.83;;;10.57;;
9248;SDS011;4660;41.768;26.198;2023-02-15T13:42:09;13.10;;;9.37;;
9248;SDS011;4660;41.768;26.198;2023-02-15T13:45:03;13.93;;;9.33;;
9248;SDS011;4660;41.768;26.198;2023-02-15T13:59:24;10.97;;;8.90;;
9248;SDS011;4660;41.768;26.198;2023-02-15T14:15:58;9.47;;;7.43;;
9248;SDS011;4660;41.768;26.198;2023-02-15T14:21:06;9.83;;;7.70;;
9248;SDS011;4660;41.768;26.198;2023-02-15T14:31:52;9.47;;;7.70;;
9248;SDS011;4660;41.768;26.198;2023-02-15T14:34:22;16.43;;;11.83;;
9248;SDS011;4660;41.768;26.198;2023-02-15T14:36:51;10.97;;;8.13;;
9248;SDS011;4660;41.768;26.198;2023-02-15T14:53:22;14.37;;;10.77;;
9248;SDS011;4660;41.768;26.198;2023-02-15T15:01:14;15.33;;;10.27;;
9248;SDS011;4660;41.768;26.198;2023-02-15T15:03:54;12.87;;;9.70;;
9248;SDS011;4660;41.768;26.198;2023-02-15T15:06:25;15.10;;;9.53;;
9248;SDS011;4660;41.768;26.198;2023-02-15T15:08:54;17.67;;;10.60;;
9248;SDS011;4660;41.768;26.198;2023-02-15T15:13:57;16.13;;;11.97;;
9248;SDS011;4660;41.768;26.198;2023-02-15T15:19:03;19.80;;;11.83;;
9248;SDS011;4660;41.768;26.198;2023-02-15T15:47:12;52.73;;;26.93;;
9248;SDS011;4660;41.768;26.198;2023-02-15T15:49:49;74.30;;;39.03;;
9248;SDS011;4660;41.768;26.198;2023-02-15T15:52:21;53.27;;;26.07;;
9248;SDS011;4660;41.768;26.198;2023-02-15T15:54:48;46.53;;;26.60;;
9248;SDS011;4660;41.768;26.198;2023-02-15T15:59:57;44.27;;;24.57;;
9248;SDS011;4660;41.768;26.198;2023-02-15T16:02:27;56.37;;;31.63;;
9248;SDS011;4660;41.768;26.198;2023-02-15T16:04:53;63.40;;;31.77;;
9248;SDS011;4660;41.768;26.198;2023-02-15T16:12:29;74.07;;;40.17;;
9248;SDS011;4660;41.768;26.198;2023-02-15T16:15:02;130.20;;;62.93;;
9248;SDS011;4660;41.768;26.198;2023-02-15T16:17:38;119.97;;;62.40;;
9248;SDS011;4660;41.768;26.198;2023-02-15T16:20:15;141.43;;;73.13;;
9248;SDS011;4660;41.768;26.198;2023-02-15T16:22:44;152.47;;;74.03;;
9248;SDS011;4660;41.768;26.198;2023-02-15T16:28:07;130.50;;;65.50;;
9248;SDS011;4660;41.768;26.198;2023-02-15T16:30:37;117.53;;;57.80;;
9248;SDS011;4660;41.768;26.198;2023-02-15T16:33:06;120.30;;;60.30;;
9248;SDS011;4660;41.768;26.198;2023-02-15T16:35:39;152.83;;;75.93;;
9248;SDS011;4660;41.768;26.198;2023-02-15T16:47:14;90.50;;;46.70;;
9248;SDS011;4660;41.768;26.198;2023-02-15T16:50:01;184.73;;;83.10;;
9248;SDS011;4660;41.768;26.198;2023-02-15T16:52:28;199.43;;;88.17;;
9248;SDS011;4660;41.768;26.198;2023-02-15T16:54:59;186.90;;;87.53;;
9248;SDS011;4660;41.768;26.198;2023-02-15T16:57:35;152.27;;;73.77;;
9248;SDS011;4660;41.768;26.198;2023-02-15T17:00:21;147.63;;;70.47;;
9248;SDS011;4660;41.768;26.198;2023-02-15T17:03:02;208.43;;;100.73;;
9248;SDS011;4660;41.768;26.198;2023-02-15T17:05:45;190.47;;;88.50;;
9248;SDS011;4660;41.768;26.198;2023-02-15T17:11:04;187.73;;;92.83;;
9248;SDS011;4660;41.768;26.198;2023-02-15T17:16:35;88.63;;;48.73;;
9248;SDS011;4660;41.768;26.198;2023-02-15T17:19:07;49.23;;;28.03;;
9248;SDS011;4660;41.768;26.198;2023-02-15T17:21:43;55.57;;;32.20;;
9248;SDS011;4660;41.768;26.198;2023-02-15T17:24:19;105.80;;;56.27;;
9248;SDS011;4660;41.768;26.198;2023-02-15T17:26:51;131.73;;;65.37;;
9248;SDS011;4660;41.768;26.198;2023-02-15T17:29:32;126.00;;;62.13;;
9248;SDS011;4660;41.768;26.198;2023-02-15T17:32:01;92.13;;;52.03;;
9248;SDS011;4660;41.768;26.198;2023-02-15T17:37:12;92.83;;;48.73;;
9248;SDS011;4660;41.768;26.198;2023-02-15T17:39:48;57.73;;;34.20;;
9248;SDS011;4660;41.768;26.198;2023-02-15T17:42:14;44.23;;;28.07;;
9248;SDS011;4660;41.768;26.198;2023-02-15T17:44:40;47.90;;;29.13;;
9248;SDS011;4660;41.768;26.198;2023-02-15T17:47:09;37.27;;;24.40;;
9248;SDS011;4660;41.768;26.198;2023-02-15T17:49:55;40.60;;;24.03;;
9248;SDS011;4660;41.768;26.198;2023-02-15T17:52:21;40.97;;;23.53;;
9248;SDS011;4660;41.768;26.198;2023-02-15T17:54:51;37.77;;;22.60;;
9248;SDS011;4660;41.768;26.198;2023-02-15T17:57:35;39.77;;;25.00;;
9248;SDS011;4660;41.768;26.198;2023-02-15T18:00:03;38.90;;;23.57;;
9248;SDS011;4660;41.768;26.198;2023-02-15T18:02:47;34.80;;;20.87;;
9248;SDS011;4660;41.768;26.198;2023-02-15T18:05:33;49.90;;;27.37;;
9248;SDS011;4660;41.768;26.198;2023-02-15T18:08:18;37.70;;;20.33;;
9248;SDS011;4660;41.768;26.198;2023-02-15T18:11:09;31.90;;;18.47;;
9248;SDS011;4660;41.768;26.198;2023-02-15T18:13:53;32.17;;;20.00;;
9248;SDS011;4660;41.768;26.198;2023-02-15T18:16:24;32.67;;;20.93;;
9248;SDS011;4660;41.768;26.198;2023-02-15T18:18:52;31.63;;;19.43;;
9248;SDS011;4660;41.768;26.198;2023-02-15T18:21:22;28.43;;;19.23;;
9248;SDS011;4660;41.768;26.198;2023-02-15T18:23:48;37.43;;;22.00;;
9248;SDS011;4660;41.768;26.198;2023-02-15T18:26:21;46.97;;;26.33;;
9248;SDS011;4660;41.768;26.198;2023-02-15T18:28:48;56.13;;;30.30;;
9248;SDS011;4660;41.768;26.198;2023-02-15T18:31:14;54.80;;;31.87;;
9248;SDS011;4660;41.768;26.198;2023-02-15T18:33:45;60.07;;;32.37;;
9248;SDS011;4660;41.768;26.198;2023-02-15T18:36:50;61.00;;;32.60;;
9248;SDS011;4660;41.768;26.198;2023-02-15T18:42:21;47.37;;;26.27;;
9248;SDS011;4660;41.768;26.198;2023-02-15T18:45:22;53.03;;;28.63;;
9248;SDS011;4660;41.768;26.198;2023-02-15T18:47:49;44.70;;;25.33;;
9248;SDS011;4660;41.768;26.198;2023-02-15T18:50:16;42.27;;;23.90;;
9248;SDS011;4660;41.768;26.198;2023-02-15T18:52:45;37.63;;;22.10;;
9248;SDS011;4660;41.768;26.198;2023-02-15T18:55:44;42.17;;;24.00;;
9248;SDS011;4660;41.768;26.198;2023-02-15T18:58:15;47.77;;;25.03;;
9248;SDS011;4660;41.768;26.198;2023-02-15T19:00:43;44.27;;;24.43;;
9248;SDS011;4660;41.768;26.198;2023-02-15T19:03:11;46.93;;;24.53;;